createdAt,value
2023-05-10T00:00:04.329Z,35.43
2023-05-10T00:01:04.369Z,35.43
2023-05-10T00:02:04.467Z,35.43
2023-05-10T00:03:04.468Z,35.46
2023-05-10T00:04:04.415Z,35.46
2023-05-10T00:05:04.349Z,35.45
2023-05-10T00:06:04.369Z,35.44
2023-05-10T00:07:04.346Z,35.45
2023-05-10T00:08:04.373Z,35.47
2023-05-10T00:09:04.347Z,35.46
2023-05-10T00:10:04.307Z,35.45
2023-05-10T00:11:04.290Z,35.47
2023-05-10T00:12:04.347Z,35.46
2023-05-10T00:13:04.345Z,35.44
2023-05-10T00:14:04.354Z,35.48
2023-05-10T00:15:04.292Z,35.47
2023-05-10T00:16:04.415Z,35.48
2023-05-10T00:17:04.372Z,35.46
2023-05-10T00:18:04.495Z,35.47
2023-05-10T00:19:04.405Z,35.50
2023-05-10T00:20:04.389Z,35.48
2023-05-10T00:21:04.396Z,35.49
2023-05-10T00:22:04.421Z,35.50
2023-05-10T00:23:04.416Z,35.52
2023-05-10T00:24:04.440Z,35.51
2023-05-10T00:25:04.416Z,35.48
2023-05-10T00:26:04.429Z,35.51
2023-05-10T00:27:04.430Z,35.52
2023-05-10T00:28:04.439Z,35.50
2023-05-10T00:29:04.453Z,35.53
2023-05-10T00:30:04.475Z,35.51
2023-05-10T00:31:04.492Z,35.53
2023-05-10T00:32:04.583Z,35.54
2023-05-10T00:33:04.524Z,35.50
2023-05-10T00:34:04.538Z,35.51
2023-05-10T00:35:04.587Z,35.52
2023-05-10T00:36:04.536Z,35.52
2023-05-10T00:37:04.510Z,35.51
2023-05-10T00:38:04.604Z,35.55
2023-05-10T00:39:04.627Z,35.55
2023-05-10T00:40:04.595Z,35.54
2023-05-10T00:41:04.611Z,35.54
2023-05-10T00:42:04.616Z,35.56
2023-05-10T00:43:04.630Z,35.54
2023-05-10T00:44:04.613Z,35.55
2023-05-10T00:45:04.660Z,35.56
2023-05-10T00:46:04.623Z,35.56
2023-05-10T00:47:04.703Z,35.56
2023-05-10T00:48:04.688Z,35.55
2023-05-10T00:49:04.670Z,35.56
2023-05-10T00:50:04.714Z,35.57
2023-05-10T00:51:04.684Z,35.58
2023-05-10T00:52:04.706Z,35.57
2023-05-10T00:53:04.712Z,35.57
2023-05-10T00:54:04.701Z,35.59
2023-05-10T00:55:04.727Z,35.56
2023-05-10T00:56:04.747Z,35.57
2023-05-10T00:57:04.777Z,35.57
2023-05-10T00:58:04.745Z,35.58
2023-05-10T00:59:04.760Z,35.61
2023-05-10T01:00:04.765Z,35.59
2023-05-10T01:01:04.799Z,35.57
2023-05-10T01:02:04.858Z,35.59
2023-05-10T01:03:04.922Z,35.60
2023-05-10T01:04:04.863Z,35.59
2023-05-10T01:05:04.929Z,35.60
2023-05-10T01:06:04.887Z,35.58
2023-05-10T01:07:04.984Z,35.61
2023-05-10T01:08:04.897Z,35.61
2023-05-10T01:09:04.936Z,35.60
2023-05-10T01:10:04.924Z,35.61
2023-05-10T01:11:04.926Z,35.59
2023-05-10T01:12:05.038Z,35.60
2023-05-10T01:13:05.005Z,35.59
2023-05-10T01:14:04.988Z,35.63
2023-05-10T01:15:05.015Z,35.63
2023-05-10T01:16:05.031Z,35.63
2023-05-10T01:17:05.015Z,35.62
2023-05-10T01:18:05.047Z,35.63
2023-05-10T01:19:05.073Z,35.63
2023-05-10T01:20:05.103Z,35.63
2023-05-10T01:21:05.091Z,35.61
2023-05-10T01:22:05.102Z,35.64
2023-05-10T01:23:05.101Z,35.63
2023-05-10T01:24:05.160Z,35.64
2023-05-10T01:25:05.154Z,35.63
2023-05-10T01:26:05.163Z,35.65
2023-05-10T01:27:05.204Z,35.64
2023-05-10T01:28:05.241Z,35.66
2023-05-10T01:29:05.236Z,35.65
2023-05-10T01:30:14.253Z,35.65
2023-05-10T01:31:06.269Z,35.66
2023-05-10T01:32:05.226Z,35.65
2023-05-10T01:33:05.246Z,35.67
2023-05-10T01:34:05.205Z,35.65
2023-05-10T01:35:05.153Z,35.67
2023-05-10T01:36:05.164Z,35.65
2023-05-10T01:37:05.167Z,35.67
2023-05-10T01:38:05.207Z,35.66
2023-05-10T01:39:05.141Z,35.67
2023-05-10T01:40:05.173Z,35.67
2023-05-10T01:41:05.130Z,35.65
2023-05-10T01:42:05.154Z,35.68
2023-05-10T01:43:05.164Z,35.65
2023-05-10T01:44:05.109Z,35.70
2023-05-10T01:45:05.096Z,35.68
2023-05-10T01:46:05.080Z,35.68
2023-05-10T01:47:05.118Z,35.68
2023-05-10T01:48:05.150Z,35.70
2023-05-10T01:49:05.109Z,35.70
2023-05-10T01:50:05.076Z,35.69
2023-05-10T01:51:05.090Z,35.70
2023-05-10T01:52:05.060Z,35.70
2023-05-10T01:53:05.040Z,35.70
2023-05-10T01:54:05.036Z,35.70
2023-05-10T01:55:05.047Z,35.70
2023-05-10T01:56:05.018Z,35.70
2023-05-10T01:57:05.033Z,35.69
2023-05-10T01:58:05.034Z,35.72
2023-05-10T01:59:05.006Z,35.71
2023-05-10T02:00:04.978Z,35.70
2023-05-10T02:01:05.040Z,35.72
2023-05-10T02:02:05.065Z,35.71
2023-05-10T02:03:05.123Z,35.72
2023-05-10T02:04:05.120Z,35.71
2023-05-10T02:05:05.042Z,35.72
2023-05-10T02:06:05.079Z,35.74
2023-05-10T02:07:05.105Z,35.72
2023-05-10T02:08:05.146Z,35.74
2023-05-10T02:09:05.160Z,35.71
2023-05-10T02:10:05.149Z,35.73
2023-05-10T02:11:05.230Z,35.75
2023-05-10T02:12:05.190Z,35.76
2023-05-10T02:13:05.269Z,35.74
2023-05-10T02:14:05.242Z,35.77
2023-05-10T02:15:05.286Z,35.76
2023-05-10T02:16:05.433Z,35.76
2023-05-10T02:17:05.435Z,35.77
2023-05-10T02:18:05.433Z,35.74
2023-05-10T02:19:05.410Z,35.77
2023-05-10T02:20:05.388Z,35.77
2023-05-10T02:21:05.428Z,35.77
2023-05-10T02:22:05.463Z,35.79
2023-05-10T02:23:05.492Z,35.76
2023-05-10T02:24:05.480Z,35.79
2023-05-10T02:25:05.524Z,35.76
2023-05-10T02:26:05.541Z,35.75
2023-05-10T02:27:05.509Z,35.77
2023-05-10T02:28:05.509Z,35.78
2023-05-10T02:29:05.547Z,35.76
2023-05-10T02:30:05.566Z,35.78
2023-05-10T02:31:05.598Z,35.77
2023-05-10T02:32:05.619Z,35.77
2023-05-10T02:33:05.647Z,35.79
2023-05-10T02:34:05.609Z,35.79
2023-05-10T02:35:05.723Z,35.77
2023-05-10T02:36:05.721Z,35.76
2023-05-10T02:37:05.681Z,35.77
2023-05-10T02:38:05.737Z,35.81
2023-05-10T02:39:05.724Z,35.79
2023-05-10T02:40:05.728Z,35.79
2023-05-10T02:41:05.747Z,35.80
2023-05-10T02:42:05.750Z,35.80
2023-05-10T02:43:05.785Z,35.81
2023-05-10T02:44:05.832Z,35.80
2023-05-10T02:45:05.838Z,35.79
2023-05-10T02:46:05.891Z,35.79
2023-05-10T02:47:05.899Z,35.80
2023-05-10T02:48:05.902Z,35.79
2023-05-10T02:49:05.858Z,35.80
2023-05-10T02:50:05.867Z,35.79
2023-05-10T02:51:05.960Z,35.81
2023-05-10T02:52:05.967Z,35.81
2023-05-10T02:53:05.993Z,35.82
2023-05-10T02:54:05.957Z,35.81
2023-05-10T02:55:06.006Z,35.81
2023-05-10T02:56:06.010Z,35.83
2023-05-10T02:57:06.062Z,35.82
2023-05-10T02:58:06.111Z,35.84
2023-05-10T02:59:06.094Z,35.82
2023-05-10T03:00:06.145Z,35.81
2023-05-10T03:01:06.179Z,35.82
2023-05-10T03:02:06.189Z,35.82
2023-05-10T03:03:06.286Z,35.82
2023-05-10T03:04:06.289Z,35.82
2023-05-10T03:05:06.238Z,35.82
2023-05-10T03:06:06.279Z,35.83
2023-05-10T03:07:06.340Z,35.82
2023-05-10T03:08:06.345Z,35.82
2023-05-10T03:09:06.354Z,35.84
2023-05-10T03:10:06.398Z,35.84
2023-05-10T03:11:06.388Z,35.85
2023-05-10T03:12:06.402Z,35.84
2023-05-10T03:13:06.461Z,35.84
2023-05-10T03:14:06.480Z,35.85
2023-05-10T03:15:06.461Z,35.87
2023-05-10T03:16:06.510Z,35.85
2023-05-10T03:17:06.497Z,35.85
2023-05-10T03:18:06.656Z,35.84
2023-05-10T03:19:06.553Z,35.85
2023-05-10T03:20:06.560Z,35.85
2023-05-10T03:21:06.579Z,35.86
2023-05-10T03:22:06.617Z,35.86
2023-05-10T03:23:06.649Z,35.84
2023-05-10T03:24:06.631Z,35.86
2023-05-10T03:25:06.692Z,35.85
2023-05-10T03:26:06.675Z,35.86
2023-05-10T03:27:06.732Z,35.85
2023-05-10T03:28:06.738Z,35.87
2023-05-10T03:29:06.752Z,35.87
2023-05-10T03:30:06.820Z,35.88
2023-05-10T03:31:06.833Z,35.86
2023-05-10T03:32:06.818Z,35.86
2023-05-10T03:33:06.982Z,35.87
2023-05-10T03:34:06.886Z,35.88
2023-05-10T03:35:06.903Z,35.88
2023-05-10T03:36:06.941Z,35.87
2023-05-10T03:37:06.948Z,35.88
2023-05-10T03:38:06.966Z,35.88
2023-05-10T03:39:07.035Z,35.87
2023-05-10T03:40:07.003Z,35.88
2023-05-10T03:41:07.089Z,35.88
2023-05-10T03:42:07.091Z,35.90
2023-05-10T03:43:07.099Z,35.87
2023-05-10T03:44:07.132Z,35.91
2023-05-10T03:45:07.159Z,35.90
2023-05-10T03:46:07.252Z,35.90
2023-05-10T03:47:07.339Z,35.88
2023-05-10T03:48:07.327Z,35.90
2023-05-10T03:49:07.253Z,35.90
2023-05-10T03:50:07.293Z,35.90
2023-05-10T03:51:07.356Z,35.90
2023-05-10T03:52:07.356Z,35.91
2023-05-10T03:53:07.367Z,35.90
2023-05-10T03:54:07.386Z,35.91
2023-05-10T03:55:07.428Z,35.91
2023-05-10T03:56:07.442Z,35.91
2023-05-10T03:57:07.455Z,35.91
2023-05-10T03:58:07.496Z,35.90
2023-05-10T03:59:07.556Z,35.91
2023-05-10T04:00:07.552Z,35.91
2023-05-10T04:01:07.602Z,35.92
2023-05-10T04:02:07.778Z,35.92
2023-05-10T04:03:07.697Z,35.88
2023-05-10T04:04:07.844Z,36.00
2023-05-10T04:05:07.754Z,36.04
2023-05-10T04:06:07.772Z,36.11
2023-05-10T04:07:07.798Z,36.19
2023-05-10T04:08:07.874Z,36.23
2023-05-10T04:09:07.888Z,36.29
2023-05-10T04:10:07.937Z,36.37
2023-05-10T04:11:07.995Z,36.43
2023-05-10T04:12:10.750Z,36.50
2023-05-10T04:13:08.077Z,36.54
2023-05-10T04:14:08.125Z,36.58
2023-05-10T04:15:08.045Z,36.62
2023-05-10T04:16:08.028Z,36.67
2023-05-10T04:17:08.132Z,36.73
2023-05-10T04:18:08.964Z,36.76
2023-05-10T04:19:08.016Z,36.82
2023-05-10T04:20:08.025Z,36.86
2023-05-10T04:21:08.006Z,36.89
2023-05-10T04:22:07.970Z,36.91
2023-05-10T04:23:07.981Z,36.92
2023-05-10T04:24:07.959Z,36.98
2023-05-10T04:25:08.010Z,37.01
2023-05-10T04:26:07.953Z,37.03
2023-05-10T04:27:07.953Z,37.06
2023-05-10T04:28:07.938Z,37.01
2023-05-10T04:29:07.982Z,37.06
2023-05-10T04:30:07.952Z,37.07
2023-05-10T04:31:08.023Z,37.06
2023-05-10T04:32:07.936Z,37.03
2023-05-10T04:33:08.067Z,37.02
2023-05-10T04:34:07.885Z,36.99
2023-05-10T04:35:07.877Z,36.96
2023-05-10T04:36:07.897Z,36.94
2023-05-10T04:37:07.874Z,36.94
2023-05-10T04:38:07.877Z,36.91
2023-05-10T04:39:07.880Z,36.89
2023-05-10T04:40:07.889Z,36.88
2023-05-10T04:41:07.918Z,36.86
2023-05-10T04:42:07.823Z,36.85
2023-05-10T04:43:07.832Z,36.82
2023-05-10T04:44:07.809Z,36.82
2023-05-10T04:45:07.810Z,36.80
2023-05-10T04:46:07.853Z,36.79
2023-05-10T04:47:08.505Z,36.79
2023-05-10T04:48:07.853Z,36.74
2023-05-10T04:49:07.770Z,36.74
2023-05-10T04:50:07.799Z,36.74
2023-05-10T04:51:07.800Z,36.72
2023-05-10T04:52:07.750Z,36.73
2023-05-10T04:53:07.768Z,36.73
2023-05-10T04:54:07.741Z,36.72
2023-05-10T04:55:07.786Z,36.71
2023-05-10T04:56:07.829Z,36.71
2023-05-10T04:57:07.920Z,36.82
2023-05-10T04:58:07.903Z,36.73
2023-05-10T04:59:07.985Z,36.67
2023-05-10T05:00:08.021Z,36.55
2023-05-10T05:01:08.060Z,36.55
2023-05-10T05:02:08.170Z,37.10
2023-05-10T05:03:08.238Z,37.64
2023-05-10T05:04:08.216Z,37.83
2023-05-10T05:05:08.160Z,38.02
2023-05-10T05:06:08.183Z,38.10
2023-05-10T05:07:08.168Z,38.03
2023-05-10T05:08:08.185Z,37.82
2023-05-10T05:09:08.179Z,37.96
2023-05-10T05:10:08.172Z,37.84
2023-05-10T05:11:08.165Z,38.04
2023-05-10T05:12:08.136Z,38.19
2023-05-10T05:13:08.275Z,38.38
2023-05-10T05:14:08.182Z,38.33
2023-05-10T05:15:09.787Z,38.36
2023-05-10T05:16:08.246Z,38.59
2023-05-10T05:17:08.148Z,38.37
2023-05-10T05:18:08.229Z,38.34
2023-05-10T05:19:08.158Z,38.49
2023-05-10T05:20:08.199Z,38.35
2023-05-10T05:21:08.164Z,38.20
2023-05-10T05:22:08.173Z,38.15
2023-05-10T05:23:08.195Z,38.26
2023-05-10T05:24:08.202Z,38.33
2023-05-10T05:25:08.199Z,38.25
2023-05-10T05:26:08.197Z,38.28
2023-05-10T05:27:08.204Z,38.42
2023-05-10T05:28:08.171Z,38.41
2023-05-10T05:29:08.243Z,38.46
2023-05-10T05:30:08.248Z,38.48
2023-05-10T05:31:08.279Z,38.49
2023-05-10T05:32:08.467Z,38.52
2023-05-10T05:33:08.315Z,38.89
2023-05-10T05:34:08.272Z,39.08
2023-05-10T05:35:08.235Z,39.19
2023-05-10T05:36:08.264Z,39.31
2023-05-10T05:37:08.298Z,39.50
2023-05-10T05:38:09.105Z,39.70
2023-05-10T05:39:08.240Z,39.89
2023-05-10T05:40:08.311Z,39.87
2023-05-10T05:41:08.318Z,40.37
2023-05-10T05:42:08.307Z,40.57
2023-05-10T05:43:08.343Z,40.45
2023-05-10T05:44:08.328Z,40.42
2023-05-10T05:45:08.350Z,40.30
2023-05-10T05:46:08.407Z,40.71
2023-05-10T05:47:08.363Z,40.57
2023-05-10T05:48:08.406Z,41.18
2023-05-10T05:49:08.446Z,41.00
2023-05-10T05:50:08.378Z,41.02
2023-05-10T05:51:08.494Z,40.97
2023-05-10T05:52:08.432Z,41.07
2023-05-10T05:53:08.522Z,41.12
2023-05-10T05:54:08.595Z,41.08
2023-05-10T05:55:08.623Z,41.22
2023-05-10T05:56:08.632Z,41.16
2023-05-10T05:57:08.672Z,41.23
2023-05-10T05:58:08.730Z,41.15
2023-05-10T05:59:08.801Z,41.05
2023-05-10T06:00:08.827Z,41.08
2023-05-10T06:01:08.807Z,41.10
2023-05-10T06:02:08.843Z,40.96
2023-05-10T06:03:08.984Z,41.09
2023-05-10T06:04:08.936Z,41.05
2023-05-10T06:05:09.397Z,41.01
2023-05-10T06:06:08.952Z,41.05
2023-05-10T06:07:08.958Z,41.14
2023-05-10T06:08:08.898Z,41.18
2023-05-10T06:09:08.918Z,41.14
2023-05-10T06:10:08.930Z,41.19
2023-05-10T06:11:09.431Z,41.18
2023-05-10T06:12:08.880Z,41.12
2023-05-10T06:13:09.977Z,41.17
2023-05-10T06:14:09.010Z,41.24
2023-05-10T06:15:08.907Z,41.28
2023-05-10T06:16:08.965Z,41.28
2023-05-10T06:17:08.987Z,41.24
2023-05-10T06:18:09.055Z,41.19
2023-05-10T06:19:08.985Z,41.17
2023-05-10T06:20:09.015Z,41.18
2023-05-10T06:21:09.050Z,41.10
2023-05-10T06:22:09.050Z,41.19
2023-05-10T06:23:09.102Z,41.15
2023-05-10T06:24:09.173Z,41.06
2023-05-10T06:25:09.186Z,41.06
2023-05-10T06:26:09.321Z,40.91
2023-05-10T06:27:09.339Z,41.11
2023-05-10T06:28:10.121Z,41.28
2023-05-10T06:29:09.455Z,41.08
2023-05-10T06:30:13.402Z,41.11
2023-05-10T06:31:09.530Z,41.14
2023-05-10T06:32:09.538Z,41.11
2023-05-10T06:33:09.623Z,41.01
2023-05-10T06:34:09.493Z,41.09
2023-05-10T06:35:09.470Z,41.15
2023-05-10T06:36:09.514Z,41.07
2023-05-10T06:37:09.445Z,40.53
2023-05-10T06:38:09.517Z,40.64
2023-05-10T06:39:09.451Z,40.75
2023-05-10T06:40:09.448Z,40.87
2023-05-10T06:41:09.447Z,40.92
2023-05-10T06:42:09.386Z,41.33
2023-05-10T06:43:09.410Z,40.91
2023-05-10T06:44:09.872Z,40.94
2023-05-10T06:45:09.411Z,41.30
2023-05-10T06:46:09.430Z,41.36
2023-05-10T06:47:09.370Z,41.53
2023-05-10T06:48:09.431Z,41.47
2023-05-10T06:49:09.395Z,41.58
2023-05-10T06:50:09.498Z,41.57
2023-05-10T06:51:09.361Z,42.05
2023-05-10T06:52:09.384Z,42.11
2023-05-10T06:53:09.398Z,41.96
2023-05-10T06:54:09.316Z,41.82
2023-05-10T06:55:09.475Z,41.87
2023-05-10T06:56:09.372Z,41.80
2023-05-10T06:57:23.370Z,41.73
2023-05-10T06:58:10.329Z,41.85
2023-05-10T06:59:09.331Z,41.82
2023-05-10T07:00:09.503Z,41.82
2023-05-10T07:01:09.571Z,41.62
2023-05-10T07:02:09.344Z,41.56
2023-05-10T07:03:09.318Z,41.56
2023-05-10T07:04:09.298Z,41.50
2023-05-10T07:05:09.315Z,41.41
2023-05-10T07:06:13.232Z,41.22
2023-05-10T07:07:09.278Z,40.96
2023-05-10T07:08:09.255Z,40.77
2023-05-10T07:09:09.437Z,40.69
2023-05-10T07:10:09.247Z,40.43
2023-05-10T07:11:09.247Z,40.44
2023-05-10T07:12:11.103Z,40.50
2023-05-10T07:13:09.303Z,40.52
2023-05-10T07:14:09.202Z,40.38
2023-05-10T07:15:09.449Z,40.36
2023-05-10T07:16:09.268Z,40.33
2023-05-10T07:17:09.268Z,40.51
2023-05-10T07:18:09.253Z,40.42
2023-05-10T07:19:09.216Z,40.33
2023-05-10T07:20:09.199Z,40.25
2023-05-10T07:21:09.241Z,40.20
2023-05-10T07:22:09.150Z,40.11
2023-05-10T07:23:09.170Z,40.02
2023-05-10T07:24:09.162Z,39.74
2023-05-10T07:25:09.128Z,39.84
2023-05-10T07:26:09.140Z,39.75
2023-05-10T07:27:09.324Z,40.13
2023-05-10T07:28:09.151Z,39.95
2023-05-10T07:29:09.264Z,40.12
2023-05-10T07:30:09.102Z,39.79
2023-05-10T07:31:09.496Z,40.33
2023-05-10T07:32:09.171Z,40.51
2023-05-10T07:33:09.090Z,40.70
2023-05-10T07:34:09.099Z,40.82
2023-05-10T07:35:09.094Z,40.93
2023-05-10T07:36:09.438Z,41.02
2023-05-10T07:37:09.073Z,41.41
2023-05-10T07:38:09.055Z,41.27
2023-05-10T07:39:09.067Z,41.07
2023-05-10T07:40:09.064Z,41.18
2023-05-10T07:41:08.992Z,41.06
2023-05-10T07:42:08.989Z,41.07
2023-05-10T07:43:08.994Z,40.99
2023-05-10T07:44:08.991Z,40.90
2023-05-10T07:45:09.021Z,40.87
2023-05-10T07:46:09.142Z,41.01
2023-05-10T07:47:08.984Z,41.20
2023-05-10T07:48:08.985Z,41.13
2023-05-10T07:49:08.996Z,41.17
2023-05-10T07:50:09.032Z,41.09
2023-05-10T07:51:08.931Z,40.87
2023-05-10T07:52:08.940Z,40.91
2023-05-10T07:53:08.952Z,40.75
2023-05-10T07:54:08.931Z,40.91
2023-05-10T07:55:08.925Z,41.04
2023-05-10T07:56:08.929Z,40.98
2023-05-10T07:57:08.933Z,40.97
2023-05-10T07:58:08.894Z,40.99
2023-05-10T07:59:10.695Z,40.99
2023-05-10T08:00:08.895Z,40.93
2023-05-10T08:01:08.929Z,41.00
2023-05-10T08:02:08.883Z,40.90
2023-05-10T08:03:08.986Z,40.97
2023-05-10T08:04:08.941Z,41.01
2023-05-10T08:05:08.913Z,40.97
2023-05-10T08:06:08.831Z,40.90
2023-05-10T08:07:08.830Z,40.86
2023-05-10T08:08:08.838Z,40.74
2023-05-10T08:09:08.806Z,40.66
2023-05-10T08:10:08.817Z,40.79
2023-05-10T08:11:08.783Z,40.73
2023-05-10T08:12:08.830Z,40.66
2023-05-10T08:13:08.802Z,40.59
2023-05-10T08:14:08.790Z,40.69
2023-05-10T08:15:08.808Z,40.72
2023-05-10T08:16:08.853Z,40.62
2023-05-10T08:17:08.776Z,40.75
2023-05-10T08:18:08.954Z,40.71
2023-05-10T08:19:08.757Z,40.63
2023-05-10T08:20:08.728Z,40.74
2023-05-10T08:21:08.720Z,40.39
2023-05-10T08:22:08.747Z,40.41
2023-05-10T08:23:08.741Z,40.26
2023-05-10T08:24:08.770Z,40.72
2023-05-10T08:25:08.770Z,41.16
2023-05-10T08:26:08.705Z,41.30
2023-05-10T08:27:08.727Z,41.29
2023-05-10T08:28:09.971Z,41.19
2023-05-10T08:29:08.883Z,40.97
2023-05-10T08:30:08.946Z,40.88
2023-05-10T08:31:08.937Z,40.93
2023-05-10T08:32:08.902Z,40.82
2023-05-10T08:33:09.047Z,40.81
2023-05-10T08:34:08.931Z,40.91
2023-05-10T08:35:08.998Z,41.00
2023-05-10T08:36:08.946Z,41.09
2023-05-10T08:37:09.006Z,40.98
2023-05-10T08:38:09.045Z,40.99
2023-05-10T08:39:16.256Z,40.92
2023-05-10T08:40:10.102Z,41.28
2023-05-10T08:41:09.085Z,41.20
2023-05-10T08:42:09.024Z,41.15
2023-05-10T08:43:09.031Z,41.14
2023-05-10T08:44:09.058Z,41.18
2023-05-10T08:45:09.231Z,41.36
2023-05-10T08:46:09.046Z,41.36
2023-05-10T08:47:09.151Z,40.99
2023-05-10T08:48:09.027Z,41.11
2023-05-10T08:49:09.004Z,41.04
2023-05-10T08:50:08.988Z,41.05
2023-05-10T08:51:09.450Z,40.95
2023-05-10T08:52:09.000Z,41.04
2023-05-10T08:53:08.964Z,41.14
2023-05-10T08:54:08.968Z,41.03
2023-05-10T08:55:08.984Z,40.89
2023-05-10T08:56:08.962Z,40.97
2023-05-10T08:57:08.998Z,40.91
2023-05-10T08:58:08.985Z,41.05
2023-05-10T08:59:09.058Z,41.61
2023-05-10T09:00:09.173Z,41.08
2023-05-10T09:01:09.165Z,41.08
2023-05-10T09:02:09.113Z,41.07
2023-05-10T09:03:09.205Z,41.13
2023-05-10T09:04:09.286Z,41.01
2023-05-10T09:05:09.281Z,40.95
2023-05-10T09:06:09.261Z,40.93
2023-05-10T09:07:09.244Z,40.95
2023-05-10T09:08:09.260Z,40.99
2023-05-10T09:09:09.865Z,40.93
2023-05-10T09:10:09.272Z,40.87
2023-05-10T09:11:09.334Z,40.86
2023-05-10T09:12:09.300Z,40.85
2023-05-10T09:13:09.295Z,40.96
2023-05-10T09:14:09.426Z,40.78
2023-05-10T09:15:09.336Z,40.77
2023-05-10T09:16:20.506Z,40.85
2023-05-10T09:17:10.381Z,40.87
2023-05-10T09:18:09.389Z,40.87
2023-05-10T09:19:09.402Z,40.88
2023-05-10T09:20:09.301Z,40.79
2023-05-10T09:21:09.309Z,40.85
2023-05-10T09:22:09.314Z,40.68
2023-05-10T09:23:09.289Z,40.69
2023-05-10T09:24:09.260Z,40.75
2023-05-10T09:25:09.302Z,40.76
2023-05-10T09:26:09.245Z,40.73
2023-05-10T09:27:09.252Z,40.77
2023-05-10T09:28:09.292Z,40.73
2023-05-10T09:29:09.271Z,40.71
2023-05-10T09:30:09.234Z,40.74
2023-05-10T09:31:09.261Z,40.74
2023-05-10T09:32:09.230Z,40.76
2023-05-10T09:33:09.178Z,40.71
2023-05-10T09:34:09.206Z,40.72
2023-05-10T09:35:09.418Z,40.71
2023-05-10T09:36:09.152Z,40.81
2023-05-10T09:37:09.210Z,41.01
2023-05-10T09:38:09.161Z,40.97
2023-05-10T09:39:09.155Z,41.14
2023-05-10T09:40:09.128Z,41.02
2023-05-10T09:41:09.139Z,40.95
2023-05-10T09:42:09.138Z,40.92
2023-05-10T09:43:09.181Z,40.87
2023-05-10T09:44:09.163Z,41.06
2023-05-10T09:45:09.102Z,40.95
2023-05-10T09:46:09.238Z,41.00
2023-05-10T09:47:09.328Z,40.95
2023-05-10T09:48:09.232Z,40.86
2023-05-10T09:49:09.258Z,40.81
2023-05-10T09:50:09.345Z,40.78
2023-05-10T09:51:09.358Z,40.66
2023-05-10T09:52:09.455Z,40.69
2023-05-10T09:53:09.461Z,40.66
2023-05-10T09:54:09.638Z,40.47
2023-05-10T09:55:09.583Z,40.37
2023-05-10T09:56:09.678Z,40.17
2023-05-10T09:57:09.714Z,40.10
2023-05-10T09:58:09.812Z,40.37
2023-05-10T09:59:09.836Z,39.87
2023-05-10T10:00:09.822Z,40.04
2023-05-10T10:01:09.822Z,39.35
2023-05-10T10:02:09.822Z,39.20
2023-05-10T10:03:09.856Z,38.98
2023-05-10T10:04:09.815Z,39.10
2023-05-10T10:05:09.934Z,38.99
2023-05-10T10:06:15.962Z,39.27
2023-05-10T10:07:10.859Z,39.07
2023-05-10T10:08:09.991Z,39.09
2023-05-10T10:09:09.866Z,39.32
2023-05-10T10:10:09.822Z,39.35
2023-05-10T10:11:09.868Z,39.56
2023-05-10T10:12:09.794Z,39.62
2023-05-10T10:13:09.955Z,39.54
2023-05-10T10:14:09.973Z,39.53
2023-05-10T10:15:09.987Z,40.03
2023-05-10T10:16:09.851Z,39.31
2023-05-10T10:17:09.925Z,39.56
2023-05-10T10:18:09.805Z,39.27
2023-05-10T10:19:09.920Z,39.58
2023-05-10T10:20:11.883Z,39.48
2023-05-10T10:21:09.869Z,39.33
2023-05-10T10:22:10.004Z,39.28
2023-05-10T10:23:09.917Z,39.75
2023-05-10T10:24:09.887Z,39.79
2023-05-10T10:25:09.908Z,39.18
2023-05-10T10:26:09.894Z,39.22
2023-05-10T10:27:10.009Z,39.61
2023-05-10T10:28:09.901Z,39.60
2023-05-10T10:29:09.923Z,39.04
2023-05-10T10:30:10.041Z,38.38
2023-05-10T10:31:10.033Z,38.53
2023-05-10T10:32:10.059Z,38.52
2023-05-10T10:33:16.879Z,39.88
2023-05-10T10:34:11.052Z,40.20
2023-05-10T10:35:10.554Z,40.23
2023-05-10T10:36:10.036Z,40.14
2023-05-10T10:37:10.063Z,40.07
2023-05-10T10:38:10.073Z,39.89
2023-05-10T10:39:09.991Z,39.71
2023-05-10T10:40:10.013Z,39.62
2023-05-10T10:41:10.060Z,39.64
2023-05-10T10:42:09.997Z,39.55
2023-05-10T10:43:10.091Z,39.28
2023-05-10T10:44:09.980Z,39.46
2023-05-10T10:45:09.997Z,40.21
2023-05-10T10:46:09.995Z,40.27
2023-05-10T10:47:10.057Z,40.30
2023-05-10T10:48:09.972Z,40.24
2023-05-10T10:49:09.958Z,40.07
2023-05-10T10:50:09.930Z,40.08
2023-05-10T10:51:12.201Z,40.00
2023-05-10T10:52:09.940Z,39.94
2023-05-10T10:53:09.993Z,39.95
2023-05-10T10:54:09.977Z,39.85
2023-05-10T10:55:10.002Z,39.76
2023-05-10T10:56:09.901Z,39.73
2023-05-10T10:57:09.955Z,39.61
2023-05-10T10:58:09.922Z,39.52
2023-05-10T10:59:09.898Z,39.44
2023-05-10T11:00:09.934Z,39.41
2023-05-10T11:01:09.937Z,39.30
2023-05-10T11:02:09.913Z,39.23
2023-05-10T11:03:09.994Z,39.18
2023-05-10T11:04:09.921Z,39.27
2023-05-10T11:05:09.897Z,39.23
2023-05-10T11:06:09.869Z,39.21
2023-05-10T11:07:09.827Z,39.15
2023-05-10T11:08:09.795Z,39.07
2023-05-10T11:09:09.848Z,39.06
2023-05-10T11:10:10.484Z,38.91
2023-05-10T11:11:09.890Z,38.88
2023-05-10T11:12:09.792Z,38.89
2023-05-10T11:13:09.838Z,38.78
2023-05-10T11:14:09.832Z,38.93
2023-05-10T11:15:09.792Z,38.83
2023-05-10T11:16:09.816Z,38.85
2023-05-10T11:17:09.863Z,38.83
2023-05-10T11:18:09.749Z,37.61
2023-05-10T11:19:09.982Z,37.26
2023-05-10T11:20:09.759Z,37.51
2023-05-10T11:21:09.727Z,37.98
2023-05-10T11:22:09.720Z,38.42
2023-05-10T11:23:09.752Z,38.21
2023-05-10T11:24:09.719Z,37.92
2023-05-10T11:25:09.692Z,38.14
2023-05-10T11:26:10.490Z,38.00
2023-05-10T11:27:09.722Z,38.16
2023-05-10T11:28:09.902Z,37.08
2023-05-10T11:29:09.692Z,36.79
2023-05-10T11:30:09.682Z,36.94
2023-05-10T11:31:09.680Z,37.71
2023-05-10T11:32:09.649Z,37.46
2023-05-10T11:33:09.764Z,37.68
2023-05-10T11:34:09.653Z,38.35
2023-05-10T11:35:09.648Z,38.80
2023-05-10T11:36:09.722Z,38.70
2023-05-10T11:37:09.633Z,38.90
2023-05-10T11:38:09.661Z,38.75
2023-05-10T11:39:09.644Z,38.99
2023-05-10T11:40:09.649Z,39.72
2023-05-10T11:41:09.600Z,38.64
2023-05-10T11:42:09.602Z,38.86
2023-05-10T11:43:09.604Z,39.10
2023-05-10T11:44:09.595Z,39.32
2023-05-10T11:45:09.630Z,39.39
2023-05-10T11:46:09.550Z,38.99
2023-05-10T11:47:09.620Z,37.86
2023-05-10T11:48:09.626Z,38.10
2023-05-10T11:49:09.541Z,37.95
2023-05-10T11:50:09.549Z,37.86
2023-05-10T11:51:09.518Z,37.90
2023-05-10T11:52:09.532Z,38.28
2023-05-10T11:53:09.547Z,38.40
2023-05-10T11:54:09.538Z,38.36
2023-05-10T11:55:09.542Z,38.02
2023-05-10T11:56:09.483Z,37.68
2023-05-10T11:57:09.518Z,37.72
2023-05-10T11:58:09.461Z,37.57
2023-05-10T11:59:09.533Z,37.74
2023-05-10T12:00:09.522Z,37.93
2023-05-10T12:01:09.476Z,38.12
2023-05-10T12:02:09.537Z,38.25
2023-05-10T12:03:09.571Z,38.55
2023-05-10T12:04:09.757Z,39.22
2023-05-10T12:05:09.529Z,39.12
2023-05-10T12:06:09.525Z,39.41
2023-05-10T12:07:09.569Z,39.45
2023-05-10T12:08:09.620Z,39.74
2023-05-10T12:09:09.654Z,39.42
2023-05-10T12:10:10.304Z,39.34
2023-05-10T12:11:09.791Z,39.72
2023-05-10T12:12:09.714Z,40.03
2023-05-10T12:13:10.019Z,40.46
2023-05-10T12:14:09.827Z,40.40
2023-05-10T12:15:09.889Z,40.75
2023-05-10T12:16:09.992Z,41.04
2023-05-10T12:17:10.014Z,41.13
2023-05-10T12:18:10.113Z,41.07
2023-05-10T12:19:10.240Z,41.07
2023-05-10T12:20:10.055Z,40.95
2023-05-10T12:21:10.164Z,41.16
2023-05-10T12:22:10.151Z,40.61
2023-05-10T12:23:10.203Z,40.81
2023-05-10T12:24:10.187Z,41.10
2023-05-10T12:25:10.213Z,41.05
2023-05-10T12:26:10.300Z,41.31
2023-05-10T12:27:10.274Z,41.33
2023-05-10T12:28:10.302Z,41.42
2023-05-10T12:29:10.348Z,41.69
2023-05-10T12:30:10.332Z,41.94
2023-05-10T12:31:10.394Z,42.18
2023-05-10T12:32:10.438Z,42.17
2023-05-10T12:33:10.528Z,42.51
2023-05-10T12:34:10.423Z,42.01
2023-05-10T12:35:10.444Z,42.12
2023-05-10T12:36:10.457Z,42.22
2023-05-10T12:37:10.548Z,42.14
2023-05-10T12:38:10.488Z,42.34
2023-05-10T12:39:10.576Z,42.33
2023-05-10T12:40:10.542Z,42.65
2023-05-10T12:41:10.625Z,42.42
2023-05-10T12:42:10.639Z,42.39
2023-05-10T12:43:10.554Z,42.83
2023-05-10T12:44:10.552Z,42.61
2023-05-10T12:45:10.657Z,42.60
2023-05-10T12:46:10.762Z,42.55
2023-05-10T12:47:10.759Z,42.50
2023-05-10T12:48:10.914Z,42.36
2023-05-10T12:49:10.880Z,42.28
2023-05-10T12:50:11.016Z,42.29
2023-05-10T12:51:10.894Z,42.24
2023-05-10T12:52:10.939Z,42.06